Aviation Digital Data Service (ADDS)

Output produced by METARs form (1705 UTC 16 June 2019)
found at http://www.aviationweather.gov/metar/data/
 
METAR text: RJOS 161600Z 35009KT 9999 FEW030 SCT050 BKN/// 19/14 Q1010
Conditions at: RJOS (TOKUSHIMA(JMSDF/, JP) observed 1600 UTC 16 June 2019
Temperature: 19.0°C (66°F)
Dewpoint: 14.0°C (57°F) [RH = 73%]
Pressure (altimeter): 29.82 inches Hg (1010.0 mb)
Winds: from the N (350 degrees) at 10 MPH (9 knots; 4.6 m/s)
Visibility: 6 or more miles (10+ km)
Ceiling: at least 12,000 feet AGL
Clouds: few clouds at 3000 feet AGL
scattered clouds at 5000 feet AGL
Weather: no significant weather observed at this time

METAR text: RJOS 161500Z 33007KT 9999 FEW030 SCT050 BKN/// 20/14 Q1010
Conditions at: RJOS (TOKUSHIMA(JMSDF/, JP) observed 1500 UTC 16 June 2019
Temperature: 20.0°C (68°F)
Dewpoint: 14.0°C (57°F) [RH = 68%]
Pressure (altimeter): 29.82 inches Hg (1010.0 mb)
Winds: from the NNW (330 degrees) at 8 MPH (7 knots; 3.6 m/s)
Visibility: 6 or more miles (10+ km)
Ceiling: at least 12,000 feet AGL
Clouds: few clouds at 3000 feet AGL
scattered clouds at 5000 feet AGL
Weather: no significant weather observed at this time

METAR text: RJOS 161400Z 30006KT 9999 FEW030 BKN060 BKN/// 20/14 Q1010
Conditions at: RJOS (TOKUSHIMA(JMSDF/, JP) observed 1400 UTC 16 June 2019
Temperature: 20.0°C (68°F)
Dewpoint: 14.0°C (57°F) [RH = 68%]
Pressure (altimeter): 29.82 inches Hg (1010.0 mb)
Winds: from the WNW (300 degrees) at 7 MPH (6 knots; 3.1 m/s)
Visibility: 6 or more miles (10+ km)
Ceiling: 6000 feet AGL
Clouds: few clouds at 3000 feet AGL
broken clouds at 6000 feet AGL
Weather: no significant weather observed at this time

METAR text: RJOS 161300Z 35011KT 9999 FEW030 SCT050 BKN/// 21/13 Q1009
Conditions at: RJOS (TOKUSHIMA(JMSDF/, JP) observed 1300 UTC 16 June 2019
Temperature: 21.0°C (70°F)
Dewpoint: 13.0°C (55°F) [RH = 60%]
Pressure (altimeter): 29.79 inches Hg (1009.0 mb)
Winds: from the N (350 degrees) at 13 MPH (11 knots; 5.7 m/s)
Visibility: 6 or more miles (10+ km)
Ceiling: at least 12,000 feet AGL
Clouds: few clouds at 3000 feet AGL
scattered clouds at 5000 feet AGL
Weather: no significant weather observed at this time

METAR text: RJOS 161200Z 01015G25KT 9999 FEW030 SCT050 BKN/// 21/13 Q1008
Conditions at: RJOS (TOKUSHIMA(JMSDF/, JP) observed 1200 UTC 16 June 2019
Temperature: 21.0°C (70°F)
Dewpoint: 13.0°C (55°F) [RH = 60%]
Pressure (altimeter): 29.76 inches Hg (1008.0 mb)
Winds: from the N (10 degrees) at 17 MPH (15 knots; 7.7 m/s)
gusting to 29 MPH (25 knots; 12.9 m/s)
Visibility: 6 or more miles (10+ km)
Ceiling: at least 12,000 feet AGL
Clouds: few clouds at 3000 feet AGL
scattered clouds at 5000 feet AGL
Weather: no significant weather observed at this time

METAR text: RJOS 161150Z 36015G25KT 9999 FEW030 SCT050 BKN/// 21/13 Q1008 RMK 1CU030 3SC050 A2977
Conditions at: RJOS (TOKUSHIMA(JMSDF/, JP) observed 1150 UTC 16 June 2019
Temperature: 21.0°C (70°F)
Dewpoint: 13.0°C (55°F) [RH = 60%]
Pressure (altimeter): 29.76 inches Hg (1008.0 mb)
Winds: from the N (360 degrees) at 17 MPH (15 knots; 7.7 m/s)
gusting to 29 MPH (25 knots; 12.9 m/s)
Visibility: 6 or more miles (10+ km)
Ceiling: at least 12,000 feet AGL
Clouds: few clouds at 3000 feet AGL
scattered clouds at 5000 feet AGL
Weather: no significant weather observed at this time

METAR text: RJOS 161100Z 36017KT 9999 FEW030 SCT050 BKN/// 22/14 Q1007
Conditions at: RJOS (TOKUSHIMA(JMSDF/, JP) observed 1100 UTC 16 June 2019
Temperature: 22.0°C (72°F)
Dewpoint: 14.0°C (57°F) [RH = 60%]
Pressure (altimeter): 29.73 inches Hg (1007.0 mb)
Winds: from the N (360 degrees) at 20 MPH (17 knots; 8.7 m/s)
Visibility: 6 or more miles (10+ km)
Ceiling: at least 12,000 feet AGL
Clouds: few clouds at 3000 feet AGL
scattered clouds at 5000 feet AGL
Weather: no significant weather observed at this time

METAR text: RJOS 161033Z 36015G25KT 9999 FEW030 SCT050 BKN/// 22/14 Q1006 RMK 1CU030 3SC050 A2973
Conditions at: RJOS (TOKUSHIMA(JMSDF/, JP) observed 1033 UTC 16 June 2019
Temperature: 22.0°C (72°F)
Dewpoint: 14.0°C (57°F) [RH = 60%]
Pressure (altimeter): 29.70 inches Hg (1006.0 mb)
Winds: from the N (360 degrees) at 17 MPH (15 knots; 7.7 m/s)
gusting to 29 MPH (25 knots; 12.9 m/s)
Visibility: 6 or more miles (10+ km)
Ceiling: at least 12,000 feet AGL
Clouds: few clouds at 3000 feet AGL
scattered clouds at 5000 feet AGL
Weather: no significant weather observed at this time

METAR text: RJOS 161000Z 36016KT 9999 FEW030 SCT050 BKN/// 22/15 Q1006
Conditions at: RJOS (TOKUSHIMA(JMSDF/, JP) observed 1000 UTC 16 June 2019
Temperature: 22.0°C (72°F)
Dewpoint: 15.0°C (59°F) [RH = 65%]
Pressure (altimeter): 29.70 inches Hg (1006.0 mb)
Winds: from the N (360 degrees) at 18 MPH (16 knots; 8.2 m/s)
Visibility: 6 or more miles (10+ km)
Ceiling: at least 12,000 feet AGL
Clouds: few clouds at 3000 feet AGL
scattered clouds at 5000 feet AGL
Weather: no significant weather observed at this time

METAR text: RJOS 160900Z 33011KT 9999 FEW030 SCT050 BKN/// 24/15 Q1005
Conditions at: RJOS (TOKUSHIMA(JMSDF/, JP) observed 0900 UTC 16 June 2019
Temperature: 24.0°C (75°F)
Dewpoint: 15.0°C (59°F) [RH = 57%]
Pressure (altimeter): 29.68 inches Hg (1005.0 mb)
Winds: from the NNW (330 degrees) at 13 MPH (11 knots; 5.7 m/s)
Visibility: 6 or more miles (10+ km)
Ceiling: at least 12,000 feet AGL
Clouds: few clouds at 3000 feet AGL
scattered clouds at 5000 feet AGL
Weather: no significant weather observed at this time

METAR text: RJOS 160800Z 33011KT 9999 -SHRA FEW020 SCT030 FEW030TCU 23/16 Q1005
Conditions at: RJOS (TOKUSHIMA(JMSDF/, JP) observed 0800 UTC 16 June 2019
Temperature: 23.0°C (73°F)
Dewpoint: 16.0°C (61°F) [RH = 65%]
Pressure (altimeter): 29.68 inches Hg (1005.0 mb)
Winds: from the NNW (330 degrees) at 13 MPH (11 knots; 5.7 m/s)
Visibility: 6 or more miles (10+ km)
Ceiling: at least 12,000 feet AGL
Clouds: few clouds at 2000 feet AGL
scattered clouds at 3000 feet AGL
few clouds at 3000 feet AGL
Weather: -SHRA  (light rain showers)

METAR text: RJOS 160700Z 31010KT 9999 FEW030 SCT050 23/17 Q1004
Conditions at: RJOS (TOKUSHIMA(JMSDF/, JP) observed 0700 UTC 16 June 2019
Temperature: 23.0°C (73°F)
Dewpoint: 17.0°C (63°F) [RH = 69%]
Pressure (altimeter): 29.65 inches Hg (1004.0 mb)
Winds: from the NW (310 degrees) at 12 MPH (10 knots; 5.1 m/s)
Visibility: 6 or more miles (10+ km)
Ceiling: at least 12,000 feet AGL
Clouds: few clouds at 3000 feet AGL
scattered clouds at 5000 feet AGL
Weather: no significant weather observed at this time

METAR text: RJOS 160600Z 35013KT 9999 FEW030 BKN050 24/17 Q1003
Conditions at: RJOS (TOKUSHIMA(JMSDF/, JP) observed 0600 UTC 16 June 2019
Temperature: 24.0°C (75°F)
Dewpoint: 17.0°C (63°F) [RH = 65%]
Pressure (altimeter): 29.62 inches Hg (1003.0 mb)
Winds: from the N (350 degrees) at 15 MPH (13 knots; 6.7 m/s)
Visibility: 6 or more miles (10+ km)
Ceiling: 5000 feet AGL
Clouds: few clouds at 3000 feet AGL
broken clouds at 5000 feet AGL
Weather: no significant weather observed at this time

METAR text: RJOS 160500Z 34015KT 9999 FEW030 BKN050 25/15 Q1003
Conditions at: RJOS (TOKUSHIMA(JMSDF/, JP) observed 0500 UTC 16 June 2019
Temperature: 25.0°C (77°F)
Dewpoint: 15.0°C (59°F) [RH = 54%]
Pressure (altimeter): 29.62 inches Hg (1003.0 mb)
Winds: from the NNW (340 degrees) at 17 MPH (15 knots; 7.7 m/s)
Visibility: 6 or more miles (10+ km)
Ceiling: 5000 feet AGL
Clouds: few clouds at 3000 feet AGL
broken clouds at 5000 feet AGL
Weather: no significant weather observed at this time

METAR text: RJOS 160400Z 34012KT 9999 FEW030 BKN050 25/15 Q1002
Conditions at: RJOS (TOKUSHIMA(JMSDF/, JP) observed 0400 UTC 16 June 2019
Temperature: 25.0°C (77°F)
Dewpoint: 15.0°C (59°F) [RH = 54%]
Pressure (altimeter): 29.59 inches Hg (1002.0 mb)
Winds: from the NNW (340 degrees) at 14 MPH (12 knots; 6.2 m/s)
Visibility: 6 or more miles (10+ km)
Ceiling: 5000 feet AGL
Clouds: few clouds at 3000 feet AGL
broken clouds at 5000 feet AGL
Weather: no significant weather observed at this time

METAR text: RJOS 160300Z 32010KT 290V350 9999 SCT035 BKN060 24/15 Q1002
Conditions at: RJOS (TOKUSHIMA(JMSDF/, JP) observed 0300 UTC 16 June 2019
Temperature: 24.0°C (75°F)
Dewpoint: 15.0°C (59°F) [RH = 57%]
Pressure (altimeter): 29.59 inches Hg (1002.0 mb)
Winds: from the NW (320 degrees) at 12 MPH (10 knots; 5.1 m/s)
Visibility: 6 or more miles (10+ km)
Ceiling: 6000 feet AGL
Clouds: scattered clouds at 3500 feet AGL
broken clouds at 6000 feet AGL
Weather: no significant weather observed at this time

METAR text: RJOS 160200Z 32015G25KT 9999 SCT035 BKN060 25/15 Q1002
Conditions at: RJOS (TOKUSHIMA(JMSDF/, JP) observed 0200 UTC 16 June 2019
Temperature: 25.0°C (77°F)
Dewpoint: 15.0°C (59°F) [RH = 54%]
Pressure (altimeter): 29.59 inches Hg (1002.0 mb)
Winds: from the NW (320 degrees) at 17 MPH (15 knots; 7.7 m/s)
gusting to 29 MPH (25 knots; 12.9 m/s)
Visibility: 6 or more miles (10+ km)
Ceiling: 6000 feet AGL
Clouds: scattered clouds at 3500 feet AGL
broken clouds at 6000 feet AGL
Weather: no significant weather observed at this time

METAR text: RJOS 160100Z 33012G22KT 9999 FEW020 SCT035 25/15 Q1001
Conditions at: RJOS (TOKUSHIMA(JMSDF/, JP) observed 0100 UTC 16 June 2019
Temperature: 25.0°C (77°F)
Dewpoint: 15.0°C (59°F) [RH = 54%]
Pressure (altimeter): 29.56 inches Hg (1001.0 mb)
Winds: from the NNW (330 degrees) at 14 MPH (12 knots; 6.2 m/s)
gusting to 25 MPH (22 knots; 11.3 m/s)
Visibility: 6 or more miles (10+ km)
Ceiling: at least 12,000 feet AGL
Clouds: few clouds at 2000 feet AGL
scattered clouds at 3500 feet AGL
Weather: no significant weather observed at this time

METAR text: RJOS 160000Z 31014G24KT 9999 FEW020 SCT035 24/15 Q1001
Conditions at: RJOS (TOKUSHIMA(JMSDF/, JP) observed 0000 UTC 16 June 2019
Temperature: 24.0°C (75°F)
Dewpoint: 15.0°C (59°F) [RH = 57%]
Pressure (altimeter): 29.56 inches Hg (1001.0 mb)
Winds: from the NW (310 degrees) at 16 MPH (14 knots; 7.2 m/s)
gusting to 28 MPH (24 knots; 12.3 m/s)
Visibility: 6 or more miles (10+ km)
Ceiling: at least 12,000 feet AGL
Clouds: few clouds at 2000 feet AGL
scattered clouds at 3500 feet AGL
Weather: no significant weather observed at this time

METAR text: RJOS 152321Z 31012KT 9999 FEW020 SCT035 BKN060 23/16 Q1001 RMK 1CU020 4CU035 5SC060 A2957
Conditions at: RJOS (TOKUSHIMA(JMSDF/, JP) observed 2321 UTC 15 June 2019
Temperature: 23.0°C (73°F)
Dewpoint: 16.0°C (61°F) [RH = 65%]
Pressure (altimeter): 29.56 inches Hg (1001.0 mb)
Winds: from the NW (310 degrees) at 14 MPH (12 knots; 6.2 m/s)
Visibility: 6 or more miles (10+ km)
Ceiling: 6000 feet AGL
Clouds: few clouds at 2000 feet AGL
scattered clouds at 3500 feet AGL
broken clouds at 6000 feet AGL
Weather: no significant weather observed at this time

METAR text: RJOS 152300Z 31009KT 9999 FEW020 BKN035 BKN050 22/15 Q1001
Conditions at: RJOS (TOKUSHIMA(JMSDF/, JP) observed 2300 UTC 15 June 2019
Temperature: 22.0°C (72°F)
Dewpoint: 15.0°C (59°F) [RH = 65%]
Pressure (altimeter): 29.56 inches Hg (1001.0 mb)
Winds: from the NW (310 degrees) at 10 MPH (9 knots; 4.6 m/s)
Visibility: 6 or more miles (10+ km)
Ceiling: 3500 feet AGL
Clouds: few clouds at 2000 feet AGL
broken clouds at 3500 feet AGL
broken clouds at 5000 feet AGL
Weather: no significant weather observed at this time

METAR text: RJOS 152200Z 30009KT 9999 FEW020 BKN035 21/15 Q1000
Conditions at: RJOS (TOKUSHIMA(JMSDF/, JP) observed 2200 UTC 15 June 2019
Temperature: 21.0°C (70°F)
Dewpoint: 15.0°C (59°F) [RH = 69%]
Pressure (altimeter): 29.53 inches Hg (1000.0 mb)
Winds: from the WNW (300 degrees) at 10 MPH (9 knots; 4.6 m/s)
Visibility: 6 or more miles (10+ km)
Ceiling: 3500 feet AGL
Clouds: few clouds at 2000 feet AGL
broken clouds at 3500 feet AGL
Weather: no significant weather observed at this time

METAR text: RJOS 152107Z 27003KT 220V340 9999 BKN035 SCT050 20/16 Q0999 RMK 5CU035 4SC050 A2952
Conditions at: RJOS (TOKUSHIMA(JMSDF/, JP) observed 2107 UTC 15 June 2019
Temperature: 20.0°C (68°F)
Dewpoint: 16.0°C (61°F) [RH = 78%]
Pressure (altimeter): 29.50 inches Hg (999.0 mb)
Winds: from the W (270 degrees) at 3 MPH (3 knots; 1.5 m/s)
Visibility: 6 or more miles (10+ km)
Ceiling: 3500 feet AGL
Clouds: broken clouds at 3500 feet AGL
scattered clouds at 5000 feet AGL
Weather: no significant weather observed at this time

METAR text: RJOS 152100Z 30006KT 9999 SCT035 SCT050 20/15 Q0999
Conditions at: RJOS (TOKUSHIMA(JMSDF/, JP) observed 2100 UTC 15 June 2019
Temperature: 20.0°C (68°F)
Dewpoint: 15.0°C (59°F) [RH = 73%]
Pressure (altimeter): 29.50 inches Hg (999.0 mb)
Winds: from the WNW (300 degrees) at 7 MPH (6 knots; 3.1 m/s)
Visibility: 6 or more miles (10+ km)
Ceiling: at least 12,000 feet AGL
Clouds: scattered clouds at 3500 feet AGL
scattered clouds at 5000 feet AGL
Weather: no significant weather observed at this time

METAR text: RJOS 152000Z 31006KT 9999 FEW030 SCT080 20/15 Q0998
Conditions at: RJOS (TOKUSHIMA(JMSDF/, JP) observed 2000 UTC 15 June 2019
Temperature: 20.0°C (68°F)
Dewpoint: 15.0°C (59°F) [RH = 73%]
Pressure (altimeter): 29.47 inches Hg (998.0 mb)
Winds: from the NW (310 degrees) at 7 MPH (6 knots; 3.1 m/s)
Visibility: 6 or more miles (10+ km)
Ceiling: at least 12,000 feet AGL
Clouds: few clouds at 3000 feet AGL
scattered clouds at 8000 feet AGL
Weather: no significant weather observed at this time

METAR text: RJOS 151900Z 29007KT 230V330 9999 SCT030 BKN070 20/14 Q0997
Conditions at: RJOS (TOKUSHIMA(JMSDF/, JP) observed 1900 UTC 15 June 2019
Temperature: 20.0°C (68°F)
Dewpoint: 14.0°C (57°F) [RH = 68%]
Pressure (altimeter): 29.44 inches Hg (997.0 mb)
Winds: from the WNW (290 degrees) at 8 MPH (7 knots; 3.6 m/s)
Visibility: 6 or more miles (10+ km)
Ceiling: 7000 feet AGL
Clouds: scattered clouds at 3000 feet AGL
broken clouds at 7000 feet AGL
Weather: no significant weather observed at this time

METAR text: RJOS 151821Z 31012KT 9999 FEW015 SCT030 BKN070 21/15 Q0997 RMK 1CU015 4CU030 6AC070 A2944
Conditions at: RJOS (TOKUSHIMA(JMSDF/, JP) observed 1821 UTC 15 June 2019
Temperature: 21.0°C (70°F)
Dewpoint: 15.0°C (59°F) [RH = 69%]
Pressure (altimeter): 29.44 inches Hg (997.0 mb)
Winds: from the NW (310 degrees) at 14 MPH (12 knots; 6.2 m/s)
Visibility: 6 or more miles (10+ km)
Ceiling: 7000 feet AGL
Clouds: few clouds at 1500 feet AGL
scattered clouds at 3000 feet AGL
broken clouds at 7000 feet AGL
Weather: no significant weather observed at this time

METAR text: RJOS 151800Z 32010KT 9999 FEW015 BKN030 21/16 Q0996
Conditions at: RJOS (TOKUSHIMA(JMSDF/, JP) observed 1800 UTC 15 June 2019
Temperature: 21.0°C (70°F)
Dewpoint: 16.0°C (61°F) [RH = 73%]
Pressure (altimeter): 29.41 inches Hg (996.0 mb)
Winds: from the NW (320 degrees) at 12 MPH (10 knots; 5.1 m/s)
Visibility: 6 or more miles (10+ km)
Ceiling: 3000 feet AGL
Clouds: few clouds at 1500 feet AGL
broken clouds at 3000 feet AGL
Weather: no significant weather observed at this time

METAR text: RJOS 151700Z 29007KT 9999 FEW015 BKN030 20/17 Q0995
Conditions at: RJOS (TOKUSHIMA(JMSDF/, JP) observed 1700 UTC 15 June 2019
Temperature: 20.0°C (68°F)
Dewpoint: 17.0°C (63°F) [RH = 83%]
Pressure (altimeter): 29.38 inches Hg (995.0 mb)
Winds: from the WNW (290 degrees) at 8 MPH (7 knots; 3.6 m/s)
Visibility: 6 or more miles (10+ km)
Ceiling: 3000 feet AGL
Clouds: few clouds at 1500 feet AGL
broken clouds at 3000 feet AGL
Weather: no significant weather observed at this time

METAR text: RJOS 151628Z 30009KT 9999 FEW015 BKN030 BKN070 20/17 Q0995 RMK 1CU015 5CU030 7AC070 A2939
Conditions at: RJOS (TOKUSHIMA(JMSDF/, JP) observed 1628 UTC 15 June 2019
Temperature: 20.0°C (68°F)
Dewpoint: 17.0°C (63°F) [RH = 83%]
Pressure (altimeter): 29.38 inches Hg (995.0 mb)
Winds: from the WNW (300 degrees) at 10 MPH (9 knots; 4.6 m/s)
Visibility: 6 or more miles (10+ km)
Ceiling: 3000 feet AGL
Clouds: few clouds at 1500 feet AGL
broken clouds at 3000 feet AGL
broken clouds at 7000 feet AGL
Weather: no significant weather observed at this time

METAR text: RJOS 151600Z 28012KT 9999 FEW015 SCT030 BKN070 20/17 Q0995
Conditions at: RJOS (TOKUSHIMA(JMSDF/, JP) observed 1600 UTC 15 June 2019
Temperature: 20.0°C (68°F)
Dewpoint: 17.0°C (63°F) [RH = 83%]
Pressure (altimeter): 29.38 inches Hg (995.0 mb)
Winds: from the W (280 degrees) at 14 MPH (12 knots; 6.2 m/s)
Visibility: 6 or more miles (10+ km)
Ceiling: 7000 feet AGL
Clouds: few clouds at 1500 feet AGL
scattered clouds at 3000 feet AGL
broken clouds at 7000 feet AGL
Weather: no significant weather observed at this time

METAR text: RJOS 151500Z 29012KT 9999 FEW020 BKN070 20/17 Q0994
Conditions at: RJOS (TOKUSHIMA(JMSDF/, JP) observed 1500 UTC 15 June 2019
Temperature: 20.0°C (68°F)
Dewpoint: 17.0°C (63°F) [RH = 83%]
Pressure (altimeter): 29.35 inches Hg (994.0 mb)
Winds: from the WNW (290 degrees) at 14 MPH (12 knots; 6.2 m/s)
Visibility: 6 or more miles (10+ km)
Ceiling: 7000 feet AGL
Clouds: few clouds at 2000 feet AGL
broken clouds at 7000 feet AGL
Weather: no significant weather observed at this time

METAR text: RJOS 151400Z 30008KT 9999 FEW020 SCT060 BKN070 20/17 Q0993
Conditions at: RJOS (TOKUSHIMA(JMSDF/, JP) observed 1400 UTC 15 June 2019
Temperature: 20.0°C (68°F)
Dewpoint: 17.0°C (63°F) [RH = 83%]
Pressure (altimeter): 29.32 inches Hg (993.0 mb)
Winds: from the WNW (300 degrees) at 9 MPH (8 knots; 4.1 m/s)
Visibility: 6 or more miles (10+ km)
Ceiling: 7000 feet AGL
Clouds: few clouds at 2000 feet AGL
scattered clouds at 6000 feet AGL
broken clouds at 7000 feet AGL
Weather: no significant weather observed at this time

METAR text: RJOS 151300Z 30010KT 9999 FEW008 SCT020 BKN060 20/17 Q0993
Conditions at: RJOS (TOKUSHIMA(JMSDF/, JP) observed 1300 UTC 15 June 2019
Temperature: 20.0°C (68°F)
Dewpoint: 17.0°C (63°F) [RH = 83%]
Pressure (altimeter): 29.32 inches Hg (993.0 mb)
Winds: from the WNW (300 degrees) at 12 MPH (10 knots; 5.1 m/s)
Visibility: 6 or more miles (10+ km)
Ceiling: 6000 feet AGL
Clouds: few clouds at 800 feet AGL
scattered clouds at 2000 feet AGL
broken clouds at 6000 feet AGL
Weather: no significant weather observed at this time

METAR text: RJOS 151236Z 31012KT 9999 FEW008 SCT020 BKN060 20/17 Q0992 RMK 1ST008 4CU020 7SC060 A2931
Conditions at: RJOS (TOKUSHIMA(JMSDF/, JP) observed 1236 UTC 15 June 2019
Temperature: 20.0°C (68°F)
Dewpoint: 17.0°C (63°F) [RH = 83%]
Pressure (altimeter): 29.29 inches Hg (992.0 mb)
Winds: from the NW (310 degrees) at 14 MPH (12 knots; 6.2 m/s)
Visibility: 6 or more miles (10+ km)
Ceiling: 6000 feet AGL
Clouds: few clouds at 800 feet AGL
scattered clouds at 2000 feet AGL
broken clouds at 6000 feet AGL
Weather: no significant weather observed at this time

METAR text: RJOS 151200Z 32012G24KT 9999 -SHRA FEW008 BKN020 BKN050 19/17 Q0992
Conditions at: RJOS (TOKUSHIMA(JMSDF/, JP) observed 1200 UTC 15 June 2019
Temperature: 19.0°C (66°F)
Dewpoint: 17.0°C (63°F) [RH = 88%]
Pressure (altimeter): 29.29 inches Hg (992.0 mb)
Winds: from the NW (320 degrees) at 14 MPH (12 knots; 6.2 m/s)
gusting to 28 MPH (24 knots; 12.3 m/s)
Visibility: 6 or more miles (10+ km)
Ceiling: 2000 feet AGL
Clouds: few clouds at 800 feet AGL
broken clouds at 2000 feet AGL
broken clouds at 5000 feet AGL
Weather: -SHRA  (light rain showers)

METAR text: RJOS 151100Z 32012KT 9999 -SHRA FEW010 BKN020 BKN050 19/17 Q0990
Conditions at: RJOS (TOKUSHIMA(JMSDF/, JP) observed 1100 UTC 15 June 2019
Temperature: 19.0°C (66°F)
Dewpoint: 17.0°C (63°F) [RH = 88%]
Pressure (altimeter): 29.23 inches Hg (990.0 mb)
Winds: from the NW (320 degrees) at 14 MPH (12 knots; 6.2 m/s)
Visibility: 6 or more miles (10+ km)
Ceiling: 2000 feet AGL
Clouds: few clouds at 1000 feet AGL
broken clouds at 2000 feet AGL
broken clouds at 5000 feet AGL
Weather: -SHRA  (light rain showers)

METAR text: RJOS 151000Z 30012KT 9999 -SHRA FEW010 BKN030 BKN050 19/17 Q0989
Conditions at: RJOS (TOKUSHIMA(JMSDF/, JP) observed 1000 UTC 15 June 2019
Temperature: 19.0°C (66°F)
Dewpoint: 17.0°C (63°F) [RH = 88%]
Pressure (altimeter): 29.20 inches Hg (989.0 mb)
Winds: from the WNW (300 degrees) at 14 MPH (12 knots; 6.2 m/s)
Visibility: 6 or more miles (10+ km)
Ceiling: 3000 feet AGL
Clouds: few clouds at 1000 feet AGL
broken clouds at 3000 feet AGL
broken clouds at 5000 feet AGL
Weather: -SHRA  (light rain showers)

METAR text: RJOS 150900Z 29012KT 9999 -SHRA FEW010 BKN030 BKN060 19/18 Q0989
Conditions at: RJOS (TOKUSHIMA(JMSDF/, JP) observed 0900 UTC 15 June 2019
Temperature: 19.0°C (66°F)
Dewpoint: 18.0°C (64°F) [RH = 94%]
Pressure (altimeter): 29.20 inches Hg (989.0 mb)
Winds: from the WNW (290 degrees) at 14 MPH (12 knots; 6.2 m/s)
Visibility: 6 or more miles (10+ km)
Ceiling: 3000 feet AGL
Clouds: few clouds at 1000 feet AGL
broken clouds at 3000 feet AGL
broken clouds at 6000 feet AGL
Weather: -SHRA  (light rain showers)

METAR text: RJOS 150800Z 29010KT 9999 -SHRA FEW010 BKN030 19/18 Q0988
Conditions at: RJOS (TOKUSHIMA(JMSDF/, JP) observed 0800 UTC 15 June 2019
Temperature: 19.0°C (66°F)
Dewpoint: 18.0°C (64°F) [RH = 94%]
Pressure (altimeter): 29.17 inches Hg (988.0 mb)
Winds: from the WNW (290 degrees) at 12 MPH (10 knots; 5.1 m/s)
Visibility: 6 or more miles (10+ km)
Ceiling: 3000 feet AGL
Clouds: few clouds at 1000 feet AGL
broken clouds at 3000 feet AGL
Weather: -SHRA  (light rain showers)

METAR text: RJOS 150717Z 29011KT 9999 FEW006 SCT010 BKN020 19/18 Q0988 RMK 2ST006 4CU010 7CU020 A2919
Conditions at: RJOS (TOKUSHIMA(JMSDF/, JP) observed 0717 UTC 15 June 2019
Temperature: 19.0°C (66°F)
Dewpoint: 18.0°C (64°F) [RH = 94%]
Pressure (altimeter): 29.17 inches Hg (988.0 mb)
Winds: from the WNW (290 degrees) at 13 MPH (11 knots; 5.7 m/s)
Visibility: 6 or more miles (10+ km)
Ceiling: 2000 feet AGL
Clouds: few clouds at 600 feet AGL
scattered clouds at 1000 feet AGL
broken clouds at 2000 feet AGL
Weather: no significant weather observed at this time

METAR text: RJOS 150700Z 30013KT 9999 -SHRA FEW006 BKN010 BKN020 19/18 Q0988
Conditions at: RJOS (TOKUSHIMA(JMSDF/, JP) observed 0700 UTC 15 June 2019
Temperature: 19.0°C (66°F)
Dewpoint: 18.0°C (64°F) [RH = 94%]
Pressure (altimeter): 29.17 inches Hg (988.0 mb)
Winds: from the WNW (300 degrees) at 15 MPH (13 knots; 6.7 m/s)
Visibility: 6 or more miles (10+ km)
Ceiling: 1000 feet AGL
Clouds: few clouds at 600 feet AGL
broken clouds at 1000 feet AGL
broken clouds at 2000 feet AGL
Weather: -SHRA  (light rain showers)

METAR text: RJOS 150624Z 30015KT 9999 -SHRA SCT006 BKN010 BKN020 19/18 Q0987 RMK 3ST006 5CU010 7CU020 A2915
Conditions at: RJOS (TOKUSHIMA(JMSDF/, JP) observed 0624 UTC 15 June 2019
Temperature: 19.0°C (66°F)
Dewpoint: 18.0°C (64°F) [RH = 94%]
Pressure (altimeter): 29.14 inches Hg (987.0 mb)
Winds: from the WNW (300 degrees) at 17 MPH (15 knots; 7.7 m/s)
Visibility: 6 or more miles (10+ km)
Ceiling: 1000 feet AGL
Clouds: scattered clouds at 600 feet AGL
broken clouds at 1000 feet AGL
broken clouds at 2000 feet AGL
Weather: -SHRA  (light rain showers)

METAR text: RJOS 150600Z 30014G33KT 260V030 5000 -SHRA BR SCT006 BKN020 FEW020CB 19/18 Q0986 RETS
Conditions at: RJOS (TOKUSHIMA(JMSDF/, JP) observed 0600 UTC 15 June 2019
Temperature: 19.0°C (66°F)
Dewpoint: 18.0°C (64°F) [RH = 94%]
Pressure (altimeter): 29.11 inches Hg (986.0 mb)
Winds: from the WNW (300 degrees) at 16 MPH (14 knots; 7.2 m/s)
gusting to 38 MPH (33 knots; 17.0 m/s)
Visibility: 3 miles ( 5 km)
Ceiling: 2000 feet AGL
Clouds: scattered clouds at 600 feet AGL
broken clouds at 2000 feet AGL
few clouds at 2000 feet AGL
Weather: -SHRA BR  (light rain showers, mist)

METAR text: RJOS 150550Z 34019G36KT 260V030 4500 -SHRA BR SCT006 BKN020CB BKN100 19/18 Q0986 RETS RMK 3ST006 6CB020 7AC100 A2913 CB 25KM NE-E MOV NE VIS VRB P/FR
Conditions at: RJOS (TOKUSHIMA(JMSDF/, JP) observed 0550 UTC 15 June 2019
Temperature: 19.0°C (66°F)
Dewpoint: 18.0°C (64°F) [RH = 94%]
Pressure (altimeter): 29.11 inches Hg (986.0 mb)
Winds: from the NNW (340 degrees) at 22 MPH (19 knots; 9.8 m/s)
gusting to 41 MPH (36 knots; 18.5 m/s)
Visibility: 2.80 miles (4.51 km)
Ceiling: 2000 feet AGL
Clouds: scattered clouds at 600 feet AGL
broken clouds at 2000 feet AGL
broken clouds at 10000 feet AGL
Weather: -SHRA BR  (light rain showers, mist)

METAR text: RJOS 150547Z 02026G36KT 3200 TSRA BR SCT006 BKN020CB BKN100 19/18 Q0984 RMK 3ST006 6CB020 7AC100 A2908 FBL TS 20KM NE-E MOV NE P/FR
Conditions at: RJOS (TOKUSHIMA(JMSDF/, JP) observed 0547 UTC 15 June 2019
Temperature: 19.0°C (66°F)
Dewpoint: 18.0°C (64°F) [RH = 94%]
Pressure (altimeter): 29.06 inches Hg (984.0 mb)
Winds: from the NNE (20 degrees) at 30 MPH (26 knots; 13.4 m/s)
gusting to 41 MPH (36 knots; 18.5 m/s)
Visibility: 1.99 miles (3.20 km)
Ceiling: 2000 feet AGL
Clouds: scattered clouds at 600 feet AGL
broken clouds at 2000 feet AGL
broken clouds at 10000 feet AGL
Weather: TSRA BR  (rain associated with thunderstorm(s), mist)

METAR text: RJOS 150536Z 01020G33KT 2500 TSRA BR SCT006 BKN020CB 19/18 Q0984 RMK 3ST006 7CB020 A2908 FBL TS 5KM E MOV NE P/FR
Conditions at: RJOS (TOKUSHIMA(JMSDF/, JP) observed 0536 UTC 15 June 2019
Temperature: 19.0°C (66°F)
Dewpoint: 18.0°C (64°F) [RH = 94%]
Pressure (altimeter): 29.06 inches Hg (984.0 mb)
Winds: from the N (10 degrees) at 23 MPH (20 knots; 10.3 m/s)
gusting to 38 MPH (33 knots; 17.0 m/s)
Visibility: 1.55 miles (2.49 km)
Ceiling: 2000 feet AGL
Clouds: scattered clouds at 600 feet AGL
broken clouds at 2000 feet AGL
Weather: TSRA BR  (rain associated with thunderstorm(s), mist)

METAR text: RJOS 150525Z 31016G26KT 290V350 2400 R29/0750VP1800U +TSRA BR SCT006 BKN020CB 19/18 Q0987 RMK 3ST006 7CB020 A2915 RP1800 FBL TS OHD MOV NE VIS VRB
Conditions at: RJOS (TOKUSHIMA(JMSDF/, JP) observed 0525 UTC 15 June 2019
Temperature: 19.0°C (66°F)
Dewpoint: 18.0°C (64°F) [RH = 94%]
Pressure (altimeter): 29.14 inches Hg (987.0 mb)
Winds: from the NW (310 degrees) at 18 MPH (16 knots; 8.2 m/s)
gusting to 30 MPH (26 knots; 13.4 m/s)
Visibility: 1.49 miles (2.40 km)
Ceiling: 2000 feet AGL
Clouds: scattered clouds at 600 feet AGL
broken clouds at 2000 feet AGL
Weather: +TSRA BR  (heavy rain associated with thunderstorm(s), mist)

METAR text: RJOS 150520Z 33018G29KT 290V360 1600 R29/0500VP1800U +TSRA BR SCT006 OVC020CB 19/18 Q0988 RMK 3ST006 8CB020 A2920 R0800 FBL TS OHD MOV NE P/RR VIS VRB
Conditions at: RJOS (TOKUSHIMA(JMSDF/, JP) observed 0520 UTC 15 June 2019
Temperature: 19.0°C (66°F)
Dewpoint: 18.0°C (64°F) [RH = 94%]
Pressure (altimeter): 29.17 inches Hg (988.0 mb)
Winds: from the NNW (330 degrees) at 21 MPH (18 knots; 9.3 m/s)
gusting to 33 MPH (29 knots; 14.9 m/s)
Visibility: 0.99 miles (1.59 km)
Ceiling: 2000 feet AGL
Clouds: scattered clouds at 600 feet AGL
overcast cloud deck at 2000 feet AGL
Weather: +TSRA BR  (heavy rain associated with thunderstorm(s), mist)